sensor_id;sensor_type;location;lat;lon;timestamp;pressure;altitude;pressure_sealevel;temperature;humidity
44839;BME280;30576;42.098;24.876;2023-08-20T00:00:07;99785.44;;;24.68;49.71
44839;BME280;30576;42.098;24.876;2023-08-20T00:02:36;99793.88;;;24.76;49.78
44839;BME280;30576;42.098;24.876;2023-08-20T00:05:02;99820.06;;;24.87;50.08
44839;BME280;30576;42.098;24.876;2023-08-20T00:07:31;99807.00;;;24.81;50.61
44839;BME280;30576;42.098;24.876;2023-08-20T00:09:57;99822.41;;;24.92;50.23
44839;BME280;30576;42.098;24.876;2023-08-20T00:12:22;99806.91;;;24.70;50.61
44839;BME280;30576;42.098;24.876;2023-08-20T00:14:52;99817.47;;;24.73;50.52
44839;BME280;30576;42.098;24.876;2023-08-20T00:17:22;99791.63;;;24.57;50.75
44839;BME280;30576;42.098;24.876;2023-08-20T00:19:50;99762.81;;;24.45;51.00
44839;BME280;30576;42.098;24.876;2023-08-20T00:22:16;99793.44;;;24.57;50.86
44839;BME280;30576;42.098;24.876;2023-08-20T00:24:42;99791.28;;;24.62;50.59
44839;BME280;30576;42.098;24.876;2023-08-20T00:27:08;99763.47;;;24.36;50.72
44839;BME280;30576;42.098;24.876;2023-08-20T00:29:34;99782.22;;;24.50;50.61
44839;BME280;30576;42.098;24.876;2023-08-20T00:32:00;99769.19;;;24.44;50.52
44839;BME280;30576;42.098;24.876;2023-08-20T00:34:26;99783.75;;;24.67;50.71
44839;BME280;30576;42.098;24.876;2023-08-20T00:36:52;99790.50;;;24.73;50.51
44839;BME280;30576;42.098;24.876;2023-08-20T00:39:18;99807.91;;;24.69;50.86
44839;BME280;30576;42.098;24.876;2023-08-20T00:41:45;99780.09;;;24.42;51.01
44839;BME280;30576;42.098;24.876;2023-08-20T00:44:10;99775.97;;;24.37;51.30
44839;BME280;30576;42.098;24.876;2023-08-20T00:46:36;99796.34;;;24.54;51.42
44839;BME280;30576;42.098;24.876;2023-08-20T00:49:01;99774.34;;;24.34;51.79
44839;BME280;30576;42.098;24.876;2023-08-20T00:51:28;99736.31;;;24.00;52.05
44839;BME280;30576;42.098;24.876;2023-08-20T00:53:54;99779.97;;;24.18;52.20
44839;BME280;30576;42.098;24.876;2023-08-20T00:56:20;99770.59;;;24.11;52.35
44839;BME280;30576;42.098;24.876;2023-08-20T00:58:45;99720.03;;;23.76;52.37
44839;BME280;30576;42.098;24.876;2023-08-20T01:01:11;99744.09;;;23.92;52.33
44839;BME280;30576;42.098;24.876;2023-08-20T01:03:36;99733.84;;;23.84;52.30
44839;BME280;30576;42.098;24.876;2023-08-20T01:09:13;99779.66;;;24.10;52.84
44839;BME280;30576;42.098;24.876;2023-08-20T01:11:53;99747.53;;;23.94;53.07
44839;BME280;30576;42.098;24.876;2023-08-20T01:14:20;99753.44;;;23.86;53.69
44839;BME280;30576;42.098;24.876;2023-08-20T01:16:46;99710.53;;;23.57;53.94
44839;BME280;30576;42.098;24.876;2023-08-20T01:19:15;99729.59;;;23.67;53.97
44839;BME280;30576;42.098;24.876;2023-08-20T01:27:19;99791.50;;;23.94;54.24
44839;BME280;30576;42.098;24.876;2023-08-20T01:29:52;99733.56;;;23.49;54.43
44839;BME280;30576;42.098;24.876;2023-08-20T01:32:18;99781.09;;;23.75;54.36
44839;BME280;30576;42.098;24.876;2023-08-20T01:34:45;99781.59;;;23.68;54.43
44839;BME280;30576;42.098;24.876;2023-08-20T01:37:11;99757.47;;;23.66;54.30
44839;BME280;30576;42.098;24.876;2023-08-20T01:39:36;99762.44;;;23.59;54.55
44839;BME280;30576;42.098;24.876;2023-08-20T01:42:02;99755.72;;;23.52;54.68
44839;BME280;30576;42.098;24.876;2023-08-20T01:44:27;99747.09;;;23.34;55.34
44839;BME280;30576;42.098;24.876;2023-08-20T01:46:53;99709.97;;;23.12;55.03
44839;BME280;30576;42.098;24.876;2023-08-20T01:49:18;99735.09;;;23.26;55.18
44839;BME280;30576;42.098;24.876;2023-08-20T01:51:45;99770.72;;;23.69;54.61
44839;BME280;30576;42.098;24.876;2023-08-20T01:54:11;99727.56;;;23.31;54.66
44839;BME280;30576;42.098;24.876;2023-08-20T01:56:37;99769.16;;;23.39;55.22
44839;BME280;30576;42.098;24.876;2023-08-20T01:59:04;99766.25;;;23.30;55.29
44839;BME280;30576;42.098;24.876;2023-08-20T02:01:30;99760.25;;;23.12;55.99
44839;BME280;30576;42.098;24.876;2023-08-20T02:03:55;99750.66;;;22.93;56.18
44839;BME280;30576;42.098;24.876;2023-08-20T02:06:21;99745.03;;;22.83;56.13
44839;BME280;30576;42.098;24.876;2023-08-20T02:08:46;99734.78;;;22.76;56.30
44839;BME280;30576;42.098;24.876;2023-08-20T02:11:12;99754.91;;;22.83;56.24
44839;BME280;30576;42.098;24.876;2023-08-20T02:13:38;99732.09;;;22.61;56.43
44839;BME280;30576;42.098;24.876;2023-08-20T02:16:04;99765.09;;;22.78;56.16
44839;BME280;30576;42.098;24.876;2023-08-20T02:18:30;99768.94;;;22.88;55.85
44839;BME280;30576;42.098;24.876;2023-08-20T02:20:56;99774.41;;;22.86;56.12
44839;BME280;30576;42.098;24.876;2023-08-20T02:23:22;99756.47;;;22.73;56.08
44839;BME280;30576;42.098;24.876;2023-08-20T02:25:48;99731.19;;;22.48;56.25
44839;BME280;30576;42.098;24.876;2023-08-20T02:28:14;99785.63;;;22.93;55.80
44839;BME280;30576;42.098;24.876;2023-08-20T02:30:43;99756.69;;;22.69;56.02
44839;BME280;30576;42.098;24.876;2023-08-20T02:33:10;99774.41;;;22.72;56.02
44839;BME280;30576;42.098;24.876;2023-08-20T02:35:39;99782.28;;;22.75;55.97
44839;BME280;30576;42.098;24.876;2023-08-20T02:38:05;99793.44;;;22.83;55.88
44839;BME280;30576;42.098;24.876;2023-08-20T02:40:31;99794.03;;;22.74;55.89
44839;BME280;30576;42.098;24.876;2023-08-20T02:42:56;99736.47;;;22.49;55.69
44839;BME280;30576;42.098;24.876;2023-08-20T02:45:22;99750.16;;;22.59;55.76
44839;BME280;30576;42.098;24.876;2023-08-20T02:47:48;99780.94;;;22.82;55.92
44839;BME280;30576;42.098;24.876;2023-08-20T02:50:14;99784.47;;;22.83;55.77
44839;BME280;30576;42.098;24.876;2023-08-20T02:52:43;99773.31;;;22.62;56.14
44839;BME280;30576;42.098;24.876;2023-08-20T02:55:08;99765.63;;;22.56;56.33
44839;BME280;30576;42.098;24.876;2023-08-20T02:57:34;99798.72;;;22.85;56.27
44839;BME280;30576;42.098;24.876;2023-08-20T03:00:00;99797.06;;;22.82;56.24
44839;BME280;30576;42.098;24.876;2023-08-20T03:02:25;99715.94;;;22.34;56.13
44839;BME280;30576;42.098;24.876;2023-08-20T03:04:51;99767.25;;;22.73;56.06
44839;BME280;30576;42.098;24.876;2023-08-20T03:07:16;99766.00;;;22.64;56.22
44839;BME280;30576;42.098;24.876;2023-08-20T03:09:41;99797.72;;;22.86;56.02
44839;BME280;30576;42.098;24.876;2023-08-20T03:12:07;99745.81;;;22.57;55.61
44839;BME280;30576;42.098;24.876;2023-08-20T03:14:33;99758.28;;;22.72;55.56
44839;BME280;30576;42.098;24.876;2023-08-20T03:16:58;99763.28;;;22.78;55.96
44839;BME280;30576;42.098;24.876;2023-08-20T03:19:24;99805.25;;;22.81;55.95
44839;BME280;30576;42.098;24.876;2023-08-20T03:21:50;99767.44;;;22.69;56.11
44839;BME280;30576;42.098;24.876;2023-08-20T03:24:15;99775.66;;;22.81;56.04
44839;BME280;30576;42.098;24.876;2023-08-20T03:26:41;99781.00;;;22.95;56.23
44839;BME280;30576;42.098;24.876;2023-08-20T03:29:06;99746.38;;;22.76;56.22
44839;BME280;30576;42.098;24.876;2023-08-20T03:31:32;99780.81;;;22.98;56.27
44839;BME280;30576;42.098;24.876;2023-08-20T03:33:57;99777.25;;;22.98;55.99
44839;BME280;30576;42.098;24.876;2023-08-20T03:36:23;99783.03;;;22.92;56.12
44839;BME280;30576;42.098;24.876;2023-08-20T03:38:48;99774.38;;;23.01;56.20
44839;BME280;30576;42.098;24.876;2023-08-20T03:41:14;99742.03;;;22.88;56.17
44839;BME280;30576;42.098;24.876;2023-08-20T03:43:39;99788.38;;;23.20;56.46
44839;BME280;30576;42.098;24.876;2023-08-20T03:46:05;99765.53;;;23.13;56.19
44839;BME280;30576;42.098;24.876;2023-08-20T03:48:30;99799.06;;;23.35;56.31
44839;BME280;30576;42.098;24.876;2023-08-20T03:50:56;99795.06;;;23.28;56.52
44839;BME280;30576;42.098;24.876;2023-08-20T03:53:22;99768.56;;;23.21;56.31
44839;BME280;30576;42.098;24.876;2023-08-20T03:55:48;99787.66;;;23.31;56.59
44839;BME280;30576;42.098;24.876;2023-08-20T03:58:14;99752.81;;;23.15;56.33
44839;BME280;30576;42.098;24.876;2023-08-20T04:00:39;99779.63;;;23.44;56.31
44839;BME280;30576;42.098;24.876;2023-08-20T04:03:05;99749.09;;;23.31;56.54
44839;BME280;30576;42.098;24.876;2023-08-20T04:05:36;99750.53;;;23.36;56.59
44839;BME280;30576;42.098;24.876;2023-08-20T04:08:02;99738.84;;;23.23;56.71
44839;BME280;30576;42.098;24.876;2023-08-20T04:10:27;99776.84;;;23.58;56.62
44839;BME280;30576;42.098;24.876;2023-08-20T04:12:53;99766.97;;;23.59;56.76
44839;BME280;30576;42.098;24.876;2023-08-20T04:15:18;99785.81;;;23.72;56.55
44839;BME280;30576;42.098;24.876;2023-08-20T04:17:44;99773.09;;;23.61;56.54
44839;BME280;30576;42.098;24.876;2023-08-20T04:20:09;99808.53;;;23.68;56.68
44839;BME280;30576;42.098;24.876;2023-08-20T04:22:35;99776.63;;;23.49;55.75
44839;BME280;30576;42.098;24.876;2023-08-20T04:25:02;99798.44;;;23.71;56.25
44839;BME280;30576;42.098;24.876;2023-08-20T04:27:27;99789.28;;;23.74;56.36
44839;BME280;30576;42.098;24.876;2023-08-20T04:29:53;99807.09;;;23.89;56.48
44839;BME280;30576;42.098;24.876;2023-08-20T04:32:18;99785.03;;;23.84;56.91
44839;BME280;30576;42.098;24.876;2023-08-20T04:34:44;99766.44;;;23.80;57.16
44839;BME280;30576;42.098;24.876;2023-08-20T04:37:11;99789.25;;;23.88;56.91
44839;BME280;30576;42.098;24.876;2023-08-20T04:39:37;99780.72;;;23.94;56.85
44839;BME280;30576;42.098;24.876;2023-08-20T04:42:02;99785.47;;;24.04;56.83
44839;BME280;30576;42.098;24.876;2023-08-20T04:44:28;99759.72;;;24.00;56.34
44839;BME280;30576;42.098;24.876;2023-08-20T04:46:53;99796.69;;;24.23;56.61
44839;BME280;30576;42.098;24.876;2023-08-20T04:49:18;99819.84;;;24.39;56.85
44839;BME280;30576;42.098;24.876;2023-08-20T04:51:44;99788.16;;;24.29;56.31
44839;BME280;30576;42.098;24.876;2023-08-20T04:54:09;99790.53;;;24.47;55.70
44839;BME280;30576;42.098;24.876;2023-08-20T04:56:35;99815.88;;;24.70;55.68
44839;BME280;30576;42.098;24.876;2023-08-20T04:59:00;99814.66;;;24.74;55.57
44839;BME280;30576;42.098;24.876;2023-08-20T05:01:26;99792.75;;;24.79;54.31
44839;BME280;30576;42.098;24.876;2023-08-20T05:03:51;99797.69;;;24.98;53.64
44839;BME280;30576;42.098;24.876;2023-08-20T05:06:17;99805.16;;;24.81;51.84
44839;BME280;30576;42.098;24.876;2023-08-20T05:08:42;99788.69;;;24.60;51.68
44839;BME280;30576;42.098;24.876;2023-08-20T05:11:08;99784.81;;;24.52;51.63
44839;BME280;30576;42.098;24.876;2023-08-20T05:13:33;99824.09;;;24.69;51.89
44839;BME280;30576;42.098;24.876;2023-08-20T05:15:59;99790.44;;;24.48;52.02
44839;BME280;30576;42.098;24.876;2023-08-20T05:18:24;99806.84;;;24.58;51.79
44839;BME280;30576;42.098;24.876;2023-08-20T05:20:52;99806.28;;;24.66;52.29
44839;BME280;30576;42.098;24.876;2023-08-20T05:23:17;99805.50;;;24.77;52.27
44839;BME280;30576;42.098;24.876;2023-08-20T05:25:43;99784.56;;;24.80;52.17
44839;BME280;30576;42.098;24.876;2023-08-20T05:28:08;99807.13;;;24.66;52.61
44839;BME280;30576;42.098;24.876;2023-08-20T05:30:34;99835.88;;;25.05;52.44
44839;BME280;30576;42.098;24.876;2023-08-20T05:32:59;99798.09;;;25.05;52.04
44839;BME280;30576;42.098;24.876;2023-08-20T05:35:25;99817.66;;;25.32;52.11
44839;BME280;30576;42.098;24.876;2023-08-20T05:37:50;99804.88;;;25.47;51.35
44839;BME280;30576;42.098;24.876;2023-08-20T05:40:16;99780.09;;;25.29;51.35
44839;BME280;30576;42.098;24.876;2023-08-20T05:42:41;99811.25;;;25.82;50.68
44839;BME280;30576;42.098;24.876;2023-08-20T05:45:07;99833.34;;;26.22;49.98
44839;BME280;30576;42.098;24.876;2023-08-20T05:47:33;99823.91;;;26.28;49.34
44839;BME280;30576;42.098;24.876;2023-08-20T05:49:58;99817.28;;;26.55;48.81
44839;BME280;30576;42.098;24.876;2023-08-20T05:52:24;99839.94;;;26.88;48.06
44839;BME280;30576;42.098;24.876;2023-08-20T05:54:49;99810.56;;;26.72;47.63
44839;BME280;30576;42.098;24.876;2023-08-20T05:57:14;99826.63;;;27.07;46.88
44839;BME280;30576;42.098;24.876;2023-08-20T05:59:40;99831.94;;;27.52;46.80
44839;BME280;30576;42.098;24.876;2023-08-20T06:02:05;99838.50;;;27.82;46.11
44839;BME280;30576;42.098;24.876;2023-08-20T06:04:31;99848.38;;;27.72;45.47
44839;BME280;30576;42.098;24.876;2023-08-20T06:06:56;99788.22;;;27.57;44.95
44839;BME280;30576;42.098;24.876;2023-08-20T06:09:22;99814.69;;;27.86;44.56
44839;BME280;30576;42.098;24.876;2023-08-20T06:11:47;99810.91;;;27.77;44.07
44839;BME280;30576;42.098;24.876;2023-08-20T06:14:14;99844.97;;;28.02;44.91
44839;BME280;30576;42.098;24.876;2023-08-20T06:16:39;99826.00;;;27.70;45.09
44839;BME280;30576;42.098;24.876;2023-08-20T06:19:05;99824.81;;;27.84;45.44
44839;BME280;30576;42.098;24.876;2023-08-20T06:21:32;99836.25;;;27.55;45.68
44839;BME280;30576;42.098;24.876;2023-08-20T06:23:57;99820.19;;;27.42;45.05
44839;BME280;30576;42.098;24.876;2023-08-20T06:26:23;99827.16;;;27.56;45.85
44839;BME280;30576;42.098;24.876;2023-08-20T06:28:48;99771.56;;;27.41;45.01
44839;BME280;30576;42.098;24.876;2023-08-20T06:31:13;99781.91;;;27.36;44.16
44839;BME280;30576;42.098;24.876;2023-08-20T06:33:39;99781.41;;;27.30;44.20
44839;BME280;30576;42.098;24.876;2023-08-20T06:36:04;99837.34;;;27.31;45.43
44839;BME280;30576;42.098;24.876;2023-08-20T06:38:30;99814.53;;;27.23;44.20
44839;BME280;30576;42.098;24.876;2023-08-20T06:40:56;99789.56;;;27.19;45.41
44839;BME280;30576;42.098;24.876;2023-08-20T06:43:21;99841.16;;;27.61;44.79
44839;BME280;30576;42.098;24.876;2023-08-20T06:45:47;99841.88;;;27.63;45.15
44839;BME280;30576;42.098;24.876;2023-08-20T06:48:12;99849.66;;;27.89;44.66
44839;BME280;30576;42.098;24.876;2023-08-20T06:50:38;99821.03;;;27.43;44.42
44839;BME280;30576;42.098;24.876;2023-08-20T06:53:03;99834.66;;;27.52;45.01
44839;BME280;30576;42.098;24.876;2023-08-20T06:55:30;99867.50;;;28.03;44.77
44839;BME280;30576;42.098;24.876;2023-08-20T06:57:56;99849.50;;;28.23;45.58
44839;BME280;30576;42.098;24.876;2023-08-20T07:00:21;99828.19;;;28.61;44.81
44839;BME280;30576;42.098;24.876;2023-08-20T07:02:47;99829.16;;;29.31;43.11
44839;BME280;30576;42.098;24.876;2023-08-20T07:05:12;99832.44;;;29.35;42.02
44839;BME280;30576;42.098;24.876;2023-08-20T07:07:40;99828.34;;;29.00;43.17
44839;BME280;30576;42.098;24.876;2023-08-20T07:10:06;99835.47;;;29.41;41.99
44839;BME280;30576;42.098;24.876;2023-08-20T07:12:31;99834.78;;;29.78;42.02
44839;BME280;30576;42.098;24.876;2023-08-20T07:14:57;99825.06;;;29.86;41.46
44839;BME280;30576;42.098;24.876;2023-08-20T07:17:22;99844.44;;;30.49;40.93
44839;BME280;30576;42.098;24.876;2023-08-20T07:19:48;99828.19;;;31.05;39.85
44839;BME280;30576;42.098;24.876;2023-08-20T07:22:13;99836.66;;;30.92;38.95
44839;BME280;30576;42.098;24.876;2023-08-20T07:24:39;99821.19;;;30.65;41.18
44839;BME280;30576;42.098;24.876;2023-08-20T07:27:04;99822.03;;;30.65;38.54
44839;BME280;30576;42.098;24.876;2023-08-20T07:29:36;99797.06;;;30.42;39.49
44839;BME280;30576;42.098;24.876;2023-08-20T07:32:01;99816.78;;;30.54;37.21
44839;BME280;30576;42.098;24.876;2023-08-20T07:34:28;99830.84;;;30.49;37.91
44839;BME280;30576;42.098;24.876;2023-08-20T07:36:54;99845.91;;;31.09;39.07
44839;BME280;30576;42.098;24.876;2023-08-20T07:39:19;99839.47;;;31.74;37.97
44839;BME280;30576;42.098;24.876;2023-08-20T07:41:45;99846.69;;;32.19;37.04
44839;BME280;30576;42.098;24.876;2023-08-20T07:44:10;99824.75;;;32.55;35.98
44839;BME280;30576;42.098;24.876;2023-08-20T07:46:36;99817.31;;;32.65;35.30
44839;BME280;30576;42.098;24.876;2023-08-20T07:49:01;99783.38;;;32.34;35.03
44839;BME280;30576;42.098;24.876;2023-08-20T07:51:27;99829.56;;;32.61;34.12
44839;BME280;30576;42.098;24.876;2023-08-20T07:53:52;99827.34;;;32.30;33.83
44839;BME280;30576;42.098;24.876;2023-08-20T07:56:17;99836.41;;;32.39;34.65
44839;BME280;30576;42.098;24.876;2023-08-20T07:58:43;99793.47;;;31.97;35.33
44839;BME280;30576;42.098;24.876;2023-08-20T08:01:08;99820.97;;;32.22;34.08
44839;BME280;30576;42.098;24.876;2023-08-20T08:03:34;99804.06;;;32.44;33.15
44839;BME280;30576;42.098;24.876;2023-08-20T08:05:59;99810.97;;;32.99;33.91
44839;BME280;30576;42.098;24.876;2023-08-20T08:08:25;99804.84;;;33.06;32.24
44839;BME280;30576;42.098;24.876;2023-08-20T08:10:50;99797.38;;;32.73;33.11
44839;BME280;30576;42.098;24.876;2023-08-20T08:13:19;99799.97;;;32.75;33.59
44839;BME280;30576;42.098;24.876;2023-08-20T08:15:45;99810.28;;;33.40;31.96
44839;BME280;30576;42.098;24.876;2023-08-20T08:18:12;99806.19;;;33.61;32.56
44839;BME280;30576;42.098;24.876;2023-08-20T08:20:37;99824.88;;;34.31;32.08
44839;BME280;30576;42.098;24.876;2023-08-20T08:23:03;99798.84;;;34.11;30.95
44839;BME280;30576;42.098;24.876;2023-08-20T08:25:29;99830.00;;;33.85;32.09
44839;BME280;30576;42.098;24.876;2023-08-20T08:27:54;99787.56;;;33.64;32.17
44839;BME280;30576;42.098;24.876;2023-08-20T08:30:20;99810.84;;;33.93;30.11
44839;BME280;30576;42.098;24.876;2023-08-20T08:32:45;99797.97;;;34.18;31.13
44839;BME280;30576;42.098;24.876;2023-08-20T08:35:11;99786.84;;;34.36;31.27
44839;BME280;30576;42.098;24.876;2023-08-20T08:37:37;99768.91;;;34.09;29.63
44839;BME280;30576;42.098;24.876;2023-08-20T08:40:03;99799.19;;;34.40;28.94
44839;BME280;30576;42.098;24.876;2023-08-20T08:42:32;99771.50;;;34.27;28.77
44839;BME280;30576;42.098;24.876;2023-08-20T08:45:00;99809.09;;;34.33;28.97
44839;BME280;30576;42.098;24.876;2023-08-20T08:47:26;99770.31;;;33.97;28.38
44839;BME280;30576;42.098;24.876;2023-08-20T08:49:54;99773.91;;;34.05;31.01
44839;BME280;30576;42.098;24.876;2023-08-20T08:52:21;99786.69;;;34.38;30.56
44839;BME280;30576;42.098;24.876;2023-08-20T08:54:47;99790.88;;;34.57;28.70
44839;BME280;30576;42.098;24.876;2023-08-20T08:57:14;99817.38;;;35.12;28.77
44839;BME280;30576;42.098;24.876;2023-08-20T08:59:41;99801.97;;;34.80;27.92
44839;BME280;30576;42.098;24.876;2023-08-20T09:02:11;99800.47;;;35.09;27.39
44839;BME280;30576;42.098;24.876;2023-08-20T09:04:41;99792.00;;;35.27;27.69
44839;BME280;30576;42.098;24.876;2023-08-20T09:07:14;99807.09;;;35.46;26.87
44839;BME280;30576;42.098;24.876;2023-08-20T09:09:43;99795.81;;;35.09;28.13
44839;BME280;30576;42.098;24.876;2023-08-20T09:12:19;99767.41;;;34.79;27.47
44839;BME280;30576;42.098;24.876;2023-08-20T09:15:03;99786.00;;;34.92;27.46
44839;BME280;30576;42.098;24.876;2023-08-20T09:17:28;99783.53;;;35.05;28.29
44839;BME280;30576;42.098;24.876;2023-08-20T09:19:55;99754.53;;;34.23;28.87
44839;BME280;30576;42.098;24.876;2023-08-20T09:22:24;99778.16;;;34.72;28.85
44839;BME280;30576;42.098;24.876;2023-08-20T09:24:56;99755.19;;;34.90;27.38
44839;BME280;30576;42.098;24.876;2023-08-20T09:27:23;99760.38;;;34.76;27.35
44839;BME280;30576;42.098;24.876;2023-08-20T09:29:56;99735.50;;;34.47;28.60
44839;BME280;30576;42.098;24.876;2023-08-20T09:32:26;99732.72;;;34.55;30.11
44839;BME280;30576;42.098;24.876;2023-08-20T09:34:53;99768.81;;;35.29;27.78
44839;BME280;30576;42.098;24.876;2023-08-20T09:37:20;99707.25;;;34.46;27.43
44839;BME280;30576;42.098;24.876;2023-08-20T09:39:46;99747.78;;;34.51;26.17
44839;BME280;30576;42.098;24.876;2023-08-20T09:42:13;99726.75;;;34.51;26.85
44839;BME280;30576;42.098;24.876;2023-08-20T09:44:40;99759.84;;;35.12;26.32
44839;BME280;30576;42.098;24.876;2023-08-20T09:47:13;99732.81;;;35.32;26.36
44839;BME280;30576;42.098;24.876;2023-08-20T09:49:43;99722.88;;;35.08;26.72
44839;BME280;30576;42.098;24.876;2023-08-20T09:52:35;99726.63;;;34.84;25.82
44839;BME280;30576;42.098;24.876;2023-08-20T09:55:11;99772.16;;;35.17;28.28
44839;BME280;30576;42.098;24.876;2023-08-20T09:57:42;99692.00;;;34.91;27.53
44839;BME280;30576;42.098;24.876;2023-08-20T10:00:12;99733.69;;;35.56;27.08
44839;BME280;30576;42.098;24.876;2023-08-20T10:03:25;99715.81;;;35.60;25.31
44839;BME280;30576;42.098;24.876;2023-08-20T10:05:54;99716.25;;;35.49;26.19
44839;BME280;30576;42.098;24.876;2023-08-20T10:08:21;99712.03;;;35.15;25.50
44839;BME280;30576;42.098;24.876;2023-08-20T10:10:47;99719.69;;;34.96;26.45
44839;BME280;30576;42.098;24.876;2023-08-20T10:13:13;99734.00;;;35.38;26.28
44839;BME280;30576;42.098;24.876;2023-08-20T10:15:39;99691.94;;;35.00;27.27
44839;BME280;30576;42.098;24.876;2023-08-20T10:18:07;99747.59;;;35.70;25.79
44839;BME280;30576;42.098;24.876;2023-08-20T10:20:33;99735.88;;;35.76;26.26
44839;BME280;30576;42.098;24.876;2023-08-20T10:23:03;99719.59;;;35.59;27.57
44839;BME280;30576;42.098;24.876;2023-08-20T10:25:29;99711.44;;;35.28;27.28
44839;BME280;30576;42.098;24.876;2023-08-20T10:28:11;99674.88;;;34.89;26.70
44839;BME280;30576;42.098;24.876;2023-08-20T10:33:37;99735.50;;;35.18;27.24
44839;BME280;30576;42.098;24.876;2023-08-20T10:36:16;99718.69;;;34.89;27.11
44839;BME280;30576;42.098;24.876;2023-08-20T10:38:44;99690.97;;;34.53;27.31
44839;BME280;30576;42.098;24.876;2023-08-20T10:41:13;99684.56;;;34.69;27.69
44839;BME280;30576;42.098;24.876;2023-08-20T10:43:48;99690.09;;;34.52;26.92
44839;BME280;30576;42.098;24.876;2023-08-20T10:46:17;99710.13;;;34.92;26.83
44839;BME280;30576;42.098;24.876;2023-08-20T10:48:47;99662.81;;;34.67;27.28
44839;BME280;30576;42.098;24.876;2023-08-20T10:51:19;99661.44;;;34.71;28.58
44839;BME280;30576;42.098;24.876;2023-08-20T10:56:55;99708.78;;;34.88;28.56
44839;BME280;30576;42.098;24.876;2023-08-20T10:59:30;99636.03;;;34.54;26.65
44839;BME280;30576;42.098;24.876;2023-08-20T11:01:58;99665.81;;;34.57;27.70
44839;BME280;30576;42.098;24.876;2023-08-20T11:04:28;99680.47;;;34.65;26.55
44839;BME280;30576;42.098;24.876;2023-08-20T11:06:57;99671.69;;;34.69;27.40
44839;BME280;30576;42.098;24.876;2023-08-20T11:09:24;99675.19;;;34.94;27.54
44839;BME280;30576;42.098;24.876;2023-08-20T11:11:51;99685.59;;;35.22;26.80
44839;BME280;30576;42.098;24.876;2023-08-20T11:14:18;99671.47;;;35.10;26.70
44839;BME280;30576;42.098;24.876;2023-08-20T11:16:44;99642.31;;;34.94;26.21
44839;BME280;30576;42.098;24.876;2023-08-20T11:19:10;99664.28;;;35.09;26.74
44839;BME280;30576;42.098;24.876;2023-08-20T11:21:38;99641.63;;;35.15;27.52
44839;BME280;30576;42.098;24.876;2023-08-20T11:24:05;99648.34;;;35.51;26.91
44839;BME280;30576;42.098;24.876;2023-08-20T11:26:39;99662.38;;;35.71;26.74
44839;BME280;30576;42.098;24.876;2023-08-20T11:29:08;99616.75;;;35.40;26.04
44839;BME280;30576;42.098;24.876;2023-08-20T11:31:35;99635.91;;;35.25;25.86
44839;BME280;30576;42.098;24.876;2023-08-20T11:34:03;99628.09;;;35.14;26.29
44839;BME280;30576;42.098;24.876;2023-08-20T11:36:29;99629.16;;;35.36;27.14
44839;BME280;30576;42.098;24.876;2023-08-20T11:38:54;99574.00;;;35.31;26.11
44839;BME280;30576;42.098;24.876;2023-08-20T11:41:24;99633.56;;;35.37;27.62
44839;BME280;30576;42.098;24.876;2023-08-20T11:43:50;99601.84;;;35.58;26.10
44839;BME280;30576;42.098;24.876;2023-08-20T11:46:19;99585.31;;;35.13;26.69
44839;BME280;30576;42.098;24.876;2023-08-20T11:49:07;99617.31;;;35.36;26.59
44839;BME280;30576;42.098;24.876;2023-08-20T11:51:42;99595.38;;;35.36;26.63
44839;BME280;30576;42.098;24.876;2023-08-20T11:54:14;99628.81;;;35.69;26.14
44839;BME280;30576;42.098;24.876;2023-08-20T11:56:47;99593.44;;;35.74;27.50
44839;BME280;30576;42.098;24.876;2023-08-20T11:59:14;99592.13;;;35.85;26.28
44839;BME280;30576;42.098;24.876;2023-08-20T12:01:40;99597.25;;;35.88;25.94
44839;BME280;30576;42.098;24.876;2023-08-20T12:04:09;99594.13;;;35.76;26.26
44839;BME280;30576;42.098;24.876;2023-08-20T12:06:36;99586.19;;;35.81;27.93
44839;BME280;30576;42.098;24.876;2023-08-20T12:09:21;99618.31;;;36.32;25.68
44839;BME280;30576;42.098;24.876;2023-08-20T12:11:52;99617.56;;;36.38;25.68
44839;BME280;30576;42.098;24.876;2023-08-20T12:14:20;99592.13;;;36.00;24.62
44839;BME280;30576;42.098;24.876;2023-08-20T12:16:45;99596.94;;;36.13;24.92
44839;BME280;30576;42.098;24.876;2023-08-20T12:19:12;99552.75;;;36.08;26.72
44839;BME280;30576;42.098;24.876;2023-08-20T12:21:39;99603.28;;;36.28;26.41
44839;BME280;30576;42.098;24.876;2023-08-20T12:24:16;99581.41;;;36.35;25.31
44839;BME280;30576;42.098;24.876;2023-08-20T12:26:51;99572.22;;;36.28;27.19
44839;BME280;30576;42.098;24.876;2023-08-20T12:29:18;99570.16;;;36.15;26.49
44839;BME280;30576;42.098;24.876;2023-08-20T12:31:44;99522.75;;;36.06;24.81
44839;BME280;30576;42.098;24.876;2023-08-20T12:34:09;99574.97;;;36.64;24.82
44839;BME280;30576;42.098;24.876;2023-08-20T12:36:41;99570.75;;;36.47;26.82
44839;BME280;30576;42.098;24.876;2023-08-20T12:39:06;99586.00;;;36.71;25.94
44839;BME280;30576;42.098;24.876;2023-08-20T12:41:34;99548.19;;;36.51;25.98
44839;BME280;30576;42.098;24.876;2023-08-20T12:44:02;99579.13;;;36.60;26.43
44839;BME280;30576;42.098;24.876;2023-08-20T12:46:27;99552.03;;;36.35;25.89
44839;BME280;30576;42.098;24.876;2023-08-20T12:48:53;99565.06;;;36.70;25.59
44839;BME280;30576;42.098;24.876;2023-08-20T12:51:18;99576.03;;;36.85;26.45
44839;BME280;30576;42.098;24.876;2023-08-20T12:53:44;99567.63;;;36.71;25.12
44839;BME280;30576;42.098;24.876;2023-08-20T12:56:10;99549.50;;;36.55;28.46
44839;BME280;30576;42.098;24.876;2023-08-20T12:58:35;99486.72;;;36.52;24.59
44839;BME280;30576;42.098;24.876;2023-08-20T13:01:02;99503.84;;;36.54;24.33
44839;BME280;30576;42.098;24.876;2023-08-20T13:03:28;99505.78;;;36.76;24.63